Time;durP1;ratioP1;P1;durP2;ratioP2;P2;SDS_P1;SDS_P2;PMS_P1;PMS_P2;Temp;Humidity;BMP_temperature;BMP_pressure;BME280_temperature;BME280_humidity;BME280_pressure;Samples;Min_cycle;Max_cycle;Signal;HPM_P1;HPM_P2
2022/09/11 00:00:41;;;;;;;2.3;1.95;;;;;;;13.55;95.23926;95422.15;;;;
2022/09/11 00:01:42;;;;;;;2.3;1.95;;;;;;;13.55;95.23926;95422.15;;;;
2022/09/11 00:02:43;;;;;;;4.400001;2;;;;;;;13.58;95.46484;95423.83;;;;
2022/09/11 00:03:43;;;;;;;4.400001;2;;;;;;;13.58;95.46484;95423.83;;;;
2022/09/11 00:04:45;;;;;;;4.400001;2;;;;;;;13.58;95.46484;95423.83;;;;
2022/09/11 00:05:46;;;;;;;4.400001;2;;;;;;;13.58;95.46484;95423.83;;;;
2022/09/11 00:06:47;;;;;;;4.400001;2;;;;;;;13.58;95.46484;95423.83;;;;
2022/09/11 00:07:47;;;;;;;4.400001;2;;;;;;;13.58;95.46484;95423.83;;;;
2022/09/11 00:08:48;;;;;;;4.400001;2;;;;;;;13.58;95.46484;95423.83;;;;
2022/09/11 00:09:52;;;;;;;4.400001;2;;;;;;;13.58;95.46484;95423.83;;;;
2022/09/11 00:10:52;;;;;;;4.400001;2;;;;;;;13.58;95.46484;95423.83;;;;
2022/09/11 00:11:53;;;;;;;4.400001;2;;;;;;;13.58;95.46484;95423.83;;;;
2022/09/11 00:12:53;;;;;;;2.65;2;;;;;;;13.55;95.36035;95413.26;;;;
2022/09/11 00:13:55;;;;;;;2.65;2;;;;;;;13.55;95.36035;95413.26;;;;
2022/09/11 00:14:56;;;;;;;2.65;2;;;;;;;13.55;95.36035;95413.26;;;;
2022/09/11 00:15:56;;;;;;;2.65;2;;;;;;;13.55;95.36035;95413.26;;;;
2022/09/11 00:16:57;;;;;;;2.65;2;;;;;;;13.55;95.36035;95413.26;;;;
2022/09/11 00:17:57;;;;;;;2.65;2;;;;;;;13.55;95.36035;95413.26;;;;
2022/09/11 00:18:58;;;;;;;2.65;2;;;;;;;13.55;95.36035;95413.26;;;;
2022/09/11 00:20:00;;;;;;;2.65;2;;;;;;;13.55;95.36035;95413.26;;;;
2022/09/11 00:21:01;;;;;;;2.65;2;;;;;;;13.55;95.36035;95413.26;;;;
2022/09/11 00:22:03;;;;;;;2.65;2;;;;;;;13.55;95.36035;95413.26;;;;
2022/09/11 00:23:04;;;;;;;2.65;2;;;;;;;13.55;95.36035;95413.26;;;;
2022/09/11 00:24:04;;;;;;;2.1;1.9;;;;;;;13.53;95.50684;95403.38;;;;
2022/09/11 00:25:06;;;;;;;2.1;1.9;;;;;;;13.53;95.50684;95403.38;;;;
2022/09/11 00:26:08;;;;;;;2.1;1.9;;;;;;;13.53;95.50684;95403.38;;;;
2022/09/11 00:27:09;;;;;;;2.1;1.9;;;;;;;13.53;95.50684;95403.38;;;;
2022/09/11 00:28:09;;;;;;;2.1;1.9;;;;;;;13.53;95.50684;95403.38;;;;
2022/09/11 00:29:12;;;;;;;2.1;1.9;;;;;;;13.53;95.50684;95403.38;;;;
2022/09/11 00:30:13;;;;;;;2.1;1.9;;;;;;;13.53;95.50684;95403.38;;;;
2022/09/11 00:31:13;;;;;;;2.1;1.9;;;;;;;13.53;95.50684;95403.38;;;;
2022/09/11 00:32:16;;;;;;;2.1;1.9;;;;;;;13.53;95.50684;95403.38;;;;
2022/09/11 00:33:16;;;;;;;2.1;1.9;;;;;;;13.53;95.50684;95403.38;;;;
2022/09/11 00:34:17;;;;;;;4;1.9;;;;;;;13.45;95.44531;95405.84;;;;
2022/09/11 00:35:17;;;;;;;4;1.9;;;;;;;13.45;95.44531;95405.84;;;;
2022/09/11 00:36:18;;;;;;;4;1.9;;;;;;;13.45;95.44531;95405.84;;;;
2022/09/11 00:37:21;;;;;;;4;1.9;;;;;;;13.45;95.44531;95405.84;;;;
2022/09/11 00:38:21;;;;;;;4;1.9;;;;;;;13.45;95.44531;95405.84;;;;
2022/09/11 00:39:21;;;;;;;4;1.9;;;;;;;13.45;95.44531;95405.84;;;;
2022/09/11 00:40:24;;;;;;;4;1.9;;;;;;;13.45;95.44531;95405.84;;;;
2022/09/11 00:41:24;;;;;;;4;1.9;;;;;;;13.45;95.44531;95405.84;;;;
2022/09/11 00:42:27;;;;;;;4;1.9;;;;;;;13.45;95.44531;95405.84;;;;
2022/09/11 00:43:28;;;;;;;4;1.9;;;;;;;13.45;95.44531;95405.84;;;;
2022/09/11 00:44:48;;;;;;;4;1.9;;;;;;;13.45;95.44531;95405.84;;;;
2022/09/11 00:45:58;;;;;;;2.1;1.9;;;;;;;13.46;95.66211;95403.57;;;;
2022/09/11 00:47:03;;;;;;;2.1;1.9;;;;;;;13.46;95.66211;95403.57;;;;
2022/09/11 00:48:07;;;;;;;2.1;1.9;;;;;;;13.46;95.66211;95403.57;;;;
2022/09/11 00:49:10;;;;;;;2.1;1.9;;;;;;;13.46;95.66211;95403.57;;;;
2022/09/11 00:50:16;;;;;;;2.1;1.9;;;;;;;13.46;95.66211;95403.57;;;;
2022/09/11 00:51:23;;;;;;;2.1;1.9;;;;;;;13.46;95.66211;95403.57;;;;
2022/09/11 00:52:28;;;;;;;2.1;1.9;;;;;;;13.46;95.66211;95403.57;;;;
2022/09/11 00:53:33;;;;;;;2.1;1.9;;;;;;;13.46;95.66211;95403.57;;;;
2022/09/11 00:54:35;;;;;;;2.1;1.9;;;;;;;13.46;95.66211;95403.57;;;;
2022/09/11 00:55:41;;;;;;;3.1;2.2;;;;;;;13.44;95.60645;95397.57;;;;
2022/09/11 00:56:46;;;;;;;3.1;2.2;;;;;;;13.44;95.60645;95397.57;;;;
2022/09/11 00:57:48;;;;;;;3.1;2.2;;;;;;;13.44;95.60645;95397.57;;;;
2022/09/11 00:58:51;;;;;;;3.1;2.2;;;;;;;13.44;95.60645;95397.57;;;;
2022/09/11 00:59:57;;;;;;;3.1;2.2;;;;;;;13.44;95.60645;95397.57;;;;
2022/09/11 01:01:01;;;;;;;3.1;2.2;;;;;;;13.44;95.60645;95397.57;;;;
2022/09/11 01:02:02;;;;;;;3.1;2.2;;;;;;;13.44;95.60645;95397.57;;;;
2022/09/11 01:03:03;;;;;;;3.1;2.2;;;;;;;13.44;95.60645;95397.57;;;;
2022/09/11 01:04:04;;;;;;;3.1;2.2;;;;;;;13.44;95.60645;95397.57;;;;
2022/09/11 01:05:06;;;;;;;3.1;2.2;;;;;;;13.44;95.60645;95397.57;;;;
2022/09/11 01:06:09;;;;;;;3.1;2.2;;;;;;;13.44;95.60645;95397.57;;;;
2022/09/11 01:07:10;;;;;;;4.15;2.15;;;;;;;13.48;95.76563;95398.75;;;;
2022/09/11 01:08:13;;;;;;;4.15;2.15;;;;;;;13.48;95.76563;95398.75;;;;
2022/09/11 01:09:14;;;;;;;4.15;2.15;;;;;;;13.48;95.76563;95398.75;;;;
2022/09/11 01:10:15;;;;;;;4.15;2.15;;;;;;;13.48;95.76563;95398.75;;;;
2022/09/11 01:11:16;;;;;;;4.15;2.15;;;;;;;13.48;95.76563;95398.75;;;;
2022/09/11 01:12:30;;;;;;;4.15;2.15;;;;;;;13.48;95.76563;95398.75;;;;
2022/09/11 01:13:37;;;;;;;4.15;2.15;;;;;;;13.48;95.76563;95398.75;;;;
2022/09/11 01:14:46;;;;;;;4.15;2.15;;;;;;;13.48;95.76563;95398.75;;;;
2022/09/11 01:15:50;;;;;;;4.15;2.15;;;;;;;13.48;95.76563;95398.75;;;;
2022/09/11 01:17:04;;;;;;;3.8;2.1;;;;;;;13.47;95.68652;95398.44;;;;
2022/09/11 01:18:21;;;;;;;3.8;2.1;;;;;;;13.47;95.68652;95398.44;;;;
2022/09/11 01:19:29;;;;;;;3.8;2.1;;;;;;;13.47;95.68652;95398.44;;;;
2022/09/11 01:20:43;;;;;;;3.8;2.1;;;;;;;13.47;95.68652;95398.44;;;;
2022/09/11 01:22:01;;;;;;;3.8;2.1;;;;;;;13.47;95.68652;95398.44;;;;
2022/09/11 01:23:19;;;;;;;3.8;2.1;;;;;;;13.47;95.68652;95398.44;;;;
2022/09/11 01:24:37;;;;;;;3.8;2.1;;;;;;;13.47;95.68652;95398.44;;;;
2022/09/11 01:25:53;;;;;;;3.8;2.1;;;;;;;13.47;95.68652;95398.44;;;;
2022/09/11 01:27:08;;;;;;;3.8;2.1;;;;;;;13.47;95.68652;95398.44;;;;
2022/09/11 01:28:27;;;;;;;3.2;2.55;;;;;;;13.52;95.89258;95394.18;;;;
2022/09/11 01:29:35;;;;;;;3.2;2.55;;;;;;;13.52;95.89258;95394.18;;;;
2022/09/11 01:30:46;;;;;;;3.2;2.55;;;;;;;13.52;95.89258;95394.18;;;;
2022/09/11 01:31:53;;;;;;;3.2;2.55;;;;;;;13.52;95.89258;95394.18;;;;
2022/09/11 01:33:01;;;;;;;3.2;2.55;;;;;;;13.52;95.89258;95394.18;;;;
2022/09/11 01:34:12;;;;;;;3.2;2.55;;;;;;;13.52;95.89258;95394.18;;;;
2022/09/11 01:35:19;;;;;;;3.2;2.55;;;;;;;13.52;95.89258;95394.18;;;;
2022/09/11 01:36:27;;;;;;;3.2;2.55;;;;;;;13.52;95.89258;95394.18;;;;
2022/09/11 01:37:34;;;;;;;3.2;2.55;;;;;;;13.52;95.89258;95394.18;;;;
2022/09/11 01:38:42;;;;;;;2.35;2.15;;;;;;;13.48;95.77441;95396.19;;;;
2022/09/11 01:39:46;;;;;;;2.35;2.15;;;;;;;13.48;95.77441;95396.19;;;;
2022/09/11 01:40:55;;;;;;;2.35;2.15;;;;;;;13.48;95.77441;95396.19;;;;
2022/09/11 01:42:01;;;;;;;2.35;2.15;;;;;;;13.48;95.77441;95396.19;;;;
2022/09/11 01:43:06;;;;;;;2.35;2.15;;;;;;;13.48;95.77441;95396.19;;;;
2022/09/11 01:44:12;;;;;;;2.35;2.15;;;;;;;13.48;95.77441;95396.19;;;;
2022/09/11 01:45:18;;;;;;;2.35;2.15;;;;;;;13.48;95.77441;95396.19;;;;
2022/09/11 01:46:21;;;;;;;2.35;2.15;;;;;;;13.48;95.77441;95396.19;;;;
2022/09/11 01:47:25;;;;;;;2.35;2.15;;;;;;;13.48;95.77441;95396.19;;;;
2022/09/11 01:48:31;;;;;;;2.35;2.15;;;;;;;13.48;95.77441;95396.19;;;;
2022/09/11 01:49:37;;;;;;;4.3;2.3;;;;;;;13.47;95.96582;95395.78;;;;
2022/09/11 01:50:42;;;;;;;4.3;2.3;;;;;;;13.47;95.96582;95395.78;;;;
2022/09/11 01:51:46;;;;;;;4.3;2.3;;;;;;;13.47;95.96582;95395.78;;;;
2022/09/11 01:52:52;;;;;;;4.3;2.3;;;;;;;13.47;95.96582;95395.78;;;;
2022/09/11 01:53:58;;;;;;;4.3;2.3;;;;;;;13.47;95.96582;95395.78;;;;
2022/09/11 01:55:02;;;;;;;4.3;2.3;;;;;;;13.47;95.96582;95395.78;;;;
2022/09/11 01:56:12;;;;;;;4.3;2.3;;;;;;;13.47;95.96582;95395.78;;;;
2022/09/11 01:57:18;;;;;;;4.3;2.3;;;;;;;13.47;95.96582;95395.78;;;;
2022/09/11 01:58:27;;;;;;;4.3;2.3;;;;;;;13.47;95.96582;95395.78;;;;
2022/09/11 01:59:30;;;;;;;4.3;2.3;;;;;;;13.47;95.96582;95395.78;;;;
2022/09/11 02:00:35;;;;;;;4.3;2.3;;;;;;;13.47;95.96582;95395.78;;;;
2022/09/11 02:01:38;;;;;;;4.3;2.3;;;;;;;13.47;95.96582;95395.78;;;;
2022/09/11 02:02:45;;;;;;;4.3;2.3;;;;;;;13.47;95.96582;95395.78;;;;
2022/09/11 02:03:48;;;;;;;4.3;2.3;;;;;;;13.47;95.96582;95395.78;;;;
2022/09/11 02:04:54;;;;;;;4.3;2.3;;;;;;;13.47;95.96582;95395.78;;;;
2022/09/11 02:06:01;;;;;;;4.3;2.3;;;;;;;13.47;95.96582;95395.78;;;;
2022/09/11 02:07:05;;;;;;;4.3;2.3;;;;;;;13.47;95.96582;95395.78;;;;
2022/09/11 02:08:10;;;;;;;4.3;2.3;;;;;;;13.47;95.96582;95395.78;;;;
2022/09/11 02:09:14;;;;;;;4.3;2.3;;;;;;;13.47;95.96582;95395.78;;;;
2022/09/11 02:10:20;;;;;;;3.1;2;;;;;;;13.42;96.03125;95390.47;;;;
2022/09/11 02:11:27;;;;;;;3.1;2;;;;;;;13.42;96.03125;95390.47;;;;
2022/09/11 02:12:32;;;;;;;3.1;2;;;;;;;13.42;96.03125;95390.47;;;;
2022/09/11 02:13:39;;;;;;;3.1;2;;;;;;;13.42;96.03125;95390.47;;;;
2022/09/11 02:14:52;;;;;;;3.1;2;;;;;;;13.42;96.03125;95390.47;;;;
2022/09/11 02:15:54;;;;;;;3.1;2;;;;;;;13.42;96.03125;95390.47;;;;
2022/09/11 02:17:03;;;;;;;3.1;2;;;;;;;13.42;96.03125;95390.47;;;;
2022/09/11 02:18:14;;;;;;;3.1;2;;;;;;;13.42;96.03125;95390.47;;;;
2022/09/11 02:19:18;;;;;;;3.1;2;;;;;;;13.42;96.03125;95390.47;;;;
2022/09/11 02:20:24;;;;;;;3.1;2;;;;;;;13.42;96.03125;95390.47;;;;
2022/09/11 02:21:25;;;;;;;3.15;2.2;;;;;;;13.48;96.22852;95383.73;;;;
2022/09/11 02:22:26;;;;;;;3.15;2.2;;;;;;;13.48;96.22852;95383.73;;;;
2022/09/11 02:23:27;;;;;;;3.15;2.2;;;;;;;13.48;96.22852;95383.73;;;;
2022/09/11 02:24:27;;;;;;;3.15;2.2;;;;;;;13.48;96.22852;95383.73;;;;
2022/09/11 02:25:28;;;;;;;3.15;2.2;;;;;;;13.48;96.22852;95383.73;;;;
2022/09/11 02:26:28;;;;;;;3.15;2.2;;;;;;;13.48;96.22852;95383.73;;;;
2022/09/11 02:27:32;;;;;;;3.15;2.2;;;;;;;13.48;96.22852;95383.73;;;;
2022/09/11 02:28:34;;;;;;;3.15;2.2;;;;;;;13.48;96.22852;95383.73;;;;
2022/09/11 02:29:34;;;;;;;3.15;2.2;;;;;;;13.48;96.22852;95383.73;;;;
2022/09/11 02:30:37;;;;;;;3.15;2.2;;;;;;;13.48;96.22852;95383.73;;;;
2022/09/11 02:31:39;;;;;;;2.2;2.05;;;;;;;13.48;96.09668;95382.92;;;;
2022/09/11 02:32:41;;;;;;;2.2;2.05;;;;;;;13.48;96.09668;95382.92;;;;
2022/09/11 02:33:42;;;;;;;2.2;2.05;;;;;;;13.48;96.09668;95382.92;;;;
2022/09/11 02:34:44;;;;;;;2.2;2.05;;;;;;;13.48;96.09668;95382.92;;;;
2022/09/11 02:35:45;;;;;;;2.2;2.05;;;;;;;13.48;96.09668;95382.92;;;;
2022/09/11 02:36:53;;;;;;;2.2;2.05;;;;;;;13.48;96.09668;95382.92;;;;
2022/09/11 02:38:12;;;;;;;2.2;2.05;;;;;;;13.48;96.09668;95382.92;;;;
2022/09/11 02:39:20;;;;;;;2.2;2.05;;;;;;;13.48;96.09668;95382.92;;;;
2022/09/11 02:40:42;;;;;;;2.2;2.05;;;;;;;13.48;96.09668;95382.92;;;;
2022/09/11 02:41:54;;;;;;;2.2;2.05;;;;;;;13.48;96.09668;95382.92;;;;
2022/09/11 02:43:13;;;;;;;3.35;2.3;;;;;;;13.52;96.23633;95385.3;;;;
2022/09/11 02:44:31;;;;;;;3.35;2.3;;;;;;;13.52;96.23633;95385.3;;;;
2022/09/11 02:45:36;;;;;;;3.35;2.3;;;;;;;13.52;96.23633;95385.3;;;;
2022/09/11 02:46:48;;;;;;;3.35;2.3;;;;;;;13.52;96.23633;95385.3;;;;
2022/09/11 02:48:00;;;;;;;3.35;2.3;;;;;;;13.52;96.23633;95385.3;;;;
2022/09/11 02:49:18;;;;;;;3.35;2.3;;;;;;;13.52;96.23633;95385.3;;;;
2022/09/11 02:50:28;;;;;;;3.35;2.3;;;;;;;13.52;96.23633;95385.3;;;;
2022/09/11 02:51:34;;;;;;;3.35;2.3;;;;;;;13.52;96.23633;95385.3;;;;
2022/09/11 02:52:42;;;;;;;3.35;2.3;;;;;;;13.52;96.23633;95385.3;;;;
2022/09/11 02:53:47;;;;;;;4.15;2.35;;;;;;;13.49;96.15527;95380.95;;;;
2022/09/11 02:54:58;;;;;;;4.15;2.35;;;;;;;13.49;96.15527;95380.95;;;;
2022/09/11 02:56:09;;;;;;;4.15;2.35;;;;;;;13.49;96.15527;95380.95;;;;
2022/09/11 02:57:19;;;;;;;4.15;2.35;;;;;;;13.49;96.15527;95380.95;;;;
2022/09/11 02:58:27;;;;;;;4.15;2.35;;;;;;;13.49;96.15527;95380.95;;;;
2022/09/11 02:59:34;;;;;;;4.15;2.35;;;;;;;13.49;96.15527;95380.95;;;;
2022/09/11 03:00:39;;;;;;;4.15;2.35;;;;;;;13.49;96.15527;95380.95;;;;
2022/09/11 03:01:41;;;;;;;4.15;2.35;;;;;;;13.49;96.15527;95380.95;;;;
2022/09/11 03:02:47;;;;;;;4.15;2.35;;;;;;;13.49;96.15527;95380.95;;;;
2022/09/11 03:03:47;;;;;;;2.3;2.1;;;;;;;13.53;96.35449;95375.08;;;;
2022/09/11 03:04:48;;;;;;;2.3;2.1;;;;;;;13.53;96.35449;95375.08;;;;
2022/09/11 03:05:48;;;;;;;2.3;2.1;;;;;;;13.53;96.35449;95375.08;;;;
2022/09/11 03:06:49;;;;;;;2.3;2.1;;;;;;;13.53;96.35449;95375.08;;;;
2022/09/11 03:07:52;;;;;;;2.3;2.1;;;;;;;13.53;96.35449;95375.08;;;;
2022/09/11 03:08:52;;;;;;;2.3;2.1;;;;;;;13.53;96.35449;95375.08;;;;
2022/09/11 03:09:53;;;;;;;2.3;2.1;;;;;;;13.53;96.35449;95375.08;;;;
2022/09/11 03:10:53;;;;;;;2.3;2.1;;;;;;;13.53;96.35449;95375.08;;;;
2022/09/11 03:11:54;;;;;;;2.3;2.1;;;;;;;13.53;96.35449;95375.08;;;;
2022/09/11 03:12:54;;;;;;;2.3;2.1;;;;;;;13.53;96.35449;95375.08;;;;
2022/09/11 03:13:57;;;;;;;2.3;2.1;;;;;;;13.53;96.35449;95375.08;;;;
2022/09/11 03:14:57;;;;;;;2.45;2.25;;;;;;;13.49;96.20898;95372.06;;;;
2022/09/11 03:15:58;;;;;;;2.45;2.25;;;;;;;13.49;96.20898;95372.06;;;;
2022/09/11 03:16:59;;;;;;;2.45;2.25;;;;;;;13.49;96.20898;95372.06;;;;
2022/09/11 03:18:00;;;;;;;2.45;2.25;;;;;;;13.49;96.20898;95372.06;;;;
2022/09/11 03:19:00;;;;;;;2.45;2.25;;;;;;;13.49;96.20898;95372.06;;;;
2022/09/11 03:20:01;;;;;;;2.45;2.25;;;;;;;13.49;96.20898;95372.06;;;;
2022/09/11 03:21:02;;;;;;;2.45;2.25;;;;;;;13.49;96.20898;95372.06;;;;
2022/09/11 03:22:04;;;;;;;2.45;2.25;;;;;;;13.49;96.20898;95372.06;;;;
2022/09/11 03:23:09;;;;;;;2.45;2.25;;;;;;;13.49;96.20898;95372.06;;;;
2022/09/11 03:24:11;;;;;;;2.45;2.25;;;;;;;13.49;96.20898;95372.06;;;;
2022/09/11 03:25:13;;;;;;;2.25;2.05;;;;;;;13.5;96.3291;95371.42;;;;
2022/09/11 03:26:16;;;;;;;2.25;2.05;;;;;;;13.5;96.3291;95371.42;;;;
2022/09/11 03:27:16;;;;;;;2.25;2.05;;;;;;;13.5;96.3291;95371.42;;;;
2022/09/11 03:28:17;;;;;;;2.25;2.05;;;;;;;13.5;96.3291;95371.42;;;;
2022/09/11 03:29:17;;;;;;;2.25;2.05;;;;;;;13.5;96.3291;95371.42;;;;
2022/09/11 03:30:18;;;;;;;2.25;2.05;;;;;;;13.5;96.3291;95371.42;;;;
2022/09/11 03:31:18;;;;;;;2.25;2.05;;;;;;;13.5;96.3291;95371.42;;;;
2022/09/11 03:32:21;;;;;;;2.25;2.05;;;;;;;13.5;96.3291;95371.42;;;;
2022/09/11 03:33:22;;;;;;;2.25;2.05;;;;;;;13.5;96.3291;95371.42;;;;
2022/09/11 03:34:22;;;;;;;2.25;2.05;;;;;;;13.5;96.3291;95371.42;;;;
2022/09/11 03:35:24;;;;;;;2.25;2.05;;;;;;;13.5;96.3291;95371.42;;;;
2022/09/11 03:36:24;;;;;;;2.85;2.15;;;;;;;13.42;96.0957;95374.95;;;;
2022/09/11 03:37:25;;;;;;;2.85;2.15;;;;;;;13.42;96.0957;95374.95;;;;
2022/09/11 03:38:25;;;;;;;2.85;2.15;;;;;;;13.42;96.0957;95374.95;;;;
2022/09/11 03:39:26;;;;;;;2.85;2.15;;;;;;;13.42;96.0957;95374.95;;;;
2022/09/11 03:40:26;;;;;;;2.85;2.15;;;;;;;13.42;96.0957;95374.95;;;;
2022/09/11 03:41:27;;;;;;;2.85;2.15;;;;;;;13.42;96.0957;95374.95;;;;
2022/09/11 03:42:28;;;;;;;2.85;2.15;;;;;;;13.42;96.0957;95374.95;;;;
2022/09/11 03:43:28;;;;;;;2.85;2.15;;;;;;;13.42;96.0957;95374.95;;;;
2022/09/11 03:44:29;;;;;;;2.85;2.15;;;;;;;13.42;96.0957;95374.95;;;;
2022/09/11 03:45:29;;;;;;;2.85;2.15;;;;;;;13.42;96.0957;95374.95;;;;
2022/09/11 03:46:31;;;;;;;3.55;2.4;;;;;;;13.39;96.29395;95369.56;;;;
2022/09/11 03:47:32;;;;;;;3.55;2.4;;;;;;;13.39;96.29395;95369.56;;;;
2022/09/11 03:48:33;;;;;;;3.55;2.4;;;;;;;13.39;96.29395;95369.56;;;;
2022/09/11 03:49:33;;;;;;;3.55;2.4;;;;;;;13.39;96.29395;95369.56;;;;
2022/09/11 03:50:34;;;;;;;3.55;2.4;;;;;;;13.39;96.29395;95369.56;;;;
2022/09/11 03:51:34;;;;;;;3.55;2.4;;;;;;;13.39;96.29395;95369.56;;;;
2022/09/11 03:52:35;;;;;;;3.55;2.4;;;;;;;13.39;96.29395;95369.56;;;;
2022/09/11 03:53:37;;;;;;;3.55;2.4;;;;;;;13.39;96.29395;95369.56;;;;
2022/09/11 03:54:38;;;;;;;3.55;2.4;;;;;;;13.39;96.29395;95369.56;;;;
2022/09/11 03:55:39;;;;;;;3.55;2.4;;;;;;;13.39;96.29395;95369.56;;;;
2022/09/11 03:56:39;;;;;;;3.55;2.4;;;;;;;13.39;96.29395;95369.56;;;;
2022/09/11 03:57:40;;;;;;;2.9;2;;;;;;;13.35;96.15625;95366.26;;;;
2022/09/11 03:58:42;;;;;;;2.9;2;;;;;;;13.35;96.15625;95366.26;;;;
2022/09/11 03:59:42;;;;;;;2.9;2;;;;;;;13.35;96.15625;95366.26;;;;
2022/09/11 04:00:43;;;;;;;2.9;2;;;;;;;13.35;96.15625;95366.26;;;;
2022/09/11 04:01:44;;;;;;;2.9;2;;;;;;;13.35;96.15625;95366.26;;;;
2022/09/11 04:02:45;;;;;;;2.9;2;;;;;;;13.35;96.15625;95366.26;;;;
2022/09/11 04:03:45;;;;;;;2.9;2;;;;;;;13.35;96.15625;95366.26;;;;
2022/09/11 04:04:46;;;;;;;2.9;2;;;;;;;13.35;96.15625;95366.26;;;;
2022/09/11 04:05:47;;;;;;;2.9;2;;;;;;;13.35;96.15625;95366.26;;;;
2022/09/11 04:06:57;;;;;;;2.9;2;;;;;;;13.35;96.15625;95366.26;;;;
2022/09/11 04:07:58;;;;;;;3.3;1.95;;;;;;;13.36;96.36133;95360.85;;;;
2022/09/11 04:08:58;;;;;;;3.3;1.95;;;;;;;13.36;96.36133;95360.85;;;;
2022/09/11 04:09:59;;;;;;;3.3;1.95;;;;;;;13.36;96.36133;95360.85;;;;
2022/09/11 04:10:59;;;;;;;3.3;1.95;;;;;;;13.36;96.36133;95360.85;;;;
2022/09/11 04:12:01;;;;;;;3.3;1.95;;;;;;;13.36;96.36133;95360.85;;;;
2022/09/11 04:13:02;;;;;;;3.3;1.95;;;;;;;13.36;96.36133;95360.85;;;;
2022/09/11 04:14:03;;;;;;;3.3;1.95;;;;;;;13.36;96.36133;95360.85;;;;
2022/09/11 04:15:04;;;;;;;3.3;1.95;;;;;;;13.36;96.36133;95360.85;;;;
2022/09/11 04:16:06;;;;;;;3.3;1.95;;;;;;;13.36;96.36133;95360.85;;;;
2022/09/11 04:17:09;;;;;;;3.3;1.95;;;;;;;13.36;96.36133;95360.85;;;;
2022/09/11 04:18:10;;;;;;;3.3;1.95;;;;;;;13.36;96.36133;95360.85;;;;
2022/09/11 04:19:12;;;;;;;4.2;2.25;;;;;;;13.3;96.24316;95358.98;;;;
2022/09/11 04:20:12;;;;;;;4.2;2.25;;;;;;;13.3;96.24316;95358.98;;;;
2022/09/11 04:21:13;;;;;;;4.2;2.25;;;;;;;13.3;96.24316;95358.98;;;;
2022/09/11 04:22:16;;;;;;;4.2;2.25;;;;;;;13.3;96.24316;95358.98;;;;
2022/09/11 04:23:16;;;;;;;4.2;2.25;;;;;;;13.3;96.24316;95358.98;;;;
2022/09/11 04:24:17;;;;;;;4.2;2.25;;;;;;;13.3;96.24316;95358.98;;;;
2022/09/11 04:25:18;;;;;;;4.2;2.25;;;;;;;13.3;96.24316;95358.98;;;;
2022/09/11 04:26:18;;;;;;;4.2;2.25;;;;;;;13.3;96.24316;95358.98;;;;
2022/09/11 04:27:22;;;;;;;4.2;2.25;;;;;;;13.3;96.24316;95358.98;;;;
2022/09/11 04:28:23;;;;;;;4.2;2.25;;;;;;;13.3;96.24316;95358.98;;;;
2022/09/11 04:29:23;;;;;;;2.6;2;;;;;;;13.29;96.41113;95364.11;;;;
2022/09/11 04:30:24;;;;;;;2.6;2;;;;;;;13.29;96.41113;95364.11;;;;
2022/09/11 04:31:26;;;;;;;2.6;2;;;;;;;13.29;96.41113;95364.11;;;;
2022/09/11 04:32:27;;;;;;;2.6;2;;;;;;;13.29;96.41113;95364.11;;;;
2022/09/11 04:33:27;;;;;;;2.6;2;;;;;;;13.29;96.41113;95364.11;;;;
2022/09/11 04:34:28;;;;;;;2.6;2;;;;;;;13.29;96.41113;95364.11;;;;
2022/09/11 04:35:29;;;;;;;2.6;2;;;;;;;13.29;96.41113;95364.11;;;;
2022/09/11 04:36:29;;;;;;;2.6;2;;;;;;;13.29;96.41113;95364.11;;;;
2022/09/11 04:37:30;;;;;;;2.6;2;;;;;;;13.29;96.41113;95364.11;;;;
2022/09/11 04:38:30;;;;;;;2.6;2;;;;;;;13.29;96.41113;95364.11;;;;
2022/09/11 04:39:31;;;;;;;2.6;2;;;;;;;13.29;96.41113;95364.11;;;;
2022/09/11 04:40:32;;;;;;;3.8;2.3;;;;;;;13.36;96.59961;95367.36;;;;
2022/09/11 04:41:34;;;;;;;3.8;2.3;;;;;;;13.36;96.59961;95367.36;;;;
2022/09/11 04:42:34;;;;;;;3.8;2.3;;;;;;;13.36;96.59961;95367.36;;;;
2022/09/11 04:43:34;;;;;;;3.8;2.3;;;;;;;13.36;96.59961;95367.36;;;;
2022/09/11 04:44:37;;;;;;;3.8;2.3;;;;;;;13.36;96.59961;95367.36;;;;
2022/09/11 04:45:39;;;;;;;3.8;2.3;;;;;;;13.36;96.59961;95367.36;;;;
2022/09/11 04:46:39;;;;;;;3.8;2.3;;;;;;;13.36;96.59961;95367.36;;;;
2022/09/11 04:47:40;;;;;;;3.8;2.3;;;;;;;13.36;96.59961;95367.36;;;;
2022/09/11 04:48:41;;;;;;;3.8;2.3;;;;;;;13.36;96.59961;95367.36;;;;
2022/09/11 04:49:45;;;;;;;3.8;2.3;;;;;;;13.36;96.59961;95367.36;;;;
2022/09/11 04:50:47;;;;;;;3.5;2.1;;;;;;;13.38;96.48535;95370.6;;;;
2022/09/11 04:51:47;;;;;;;3.5;2.1;;;;;;;13.38;96.48535;95370.6;;;;
2022/09/11 04:52:48;;;;;;;3.5;2.1;;;;;;;13.38;96.48535;95370.6;;;;
2022/09/11 04:53:49;;;;;;;3.5;2.1;;;;;;;13.38;96.48535;95370.6;;;;
2022/09/11 04:54:49;;;;;;;3.5;2.1;;;;;;;13.38;96.48535;95370.6;;;;
2022/09/11 04:55:50;;;;;;;3.5;2.1;;;;;;;13.38;96.48535;95370.6;;;;
2022/09/11 04:56:50;;;;;;;3.5;2.1;;;;;;;13.38;96.48535;95370.6;;;;
2022/09/11 04:57:52;;;;;;;3.5;2.1;;;;;;;13.38;96.48535;95370.6;;;;
2022/09/11 04:58:53;;;;;;;3.5;2.1;;;;;;;13.38;96.48535;95370.6;;;;
2022/09/11 04:59:57;;;;;;;3.5;2.1;;;;;;;13.38;96.48535;95370.6;;;;
2022/09/11 05:00:57;;;;;;;3.5;2.1;;;;;;;13.38;96.48535;95370.6;;;;
2022/09/11 05:01:58;;;;;;;2.95;2.2;;;;;;;13.5;96.62891;95371.97;;;;
2022/09/11 05:02:59;;;;;;;2.95;2.2;;;;;;;13.5;96.62891;95371.97;;;;
2022/09/11 05:04:00;;;;;;;2.95;2.2;;;;;;;13.5;96.62891;95371.97;;;;
2022/09/11 05:05:01;;;;;;;2.95;2.2;;;;;;;13.5;96.62891;95371.97;;;;
2022/09/11 05:06:03;;;;;;;2.95;2.2;;;;;;;13.5;96.62891;95371.97;;;;
2022/09/11 05:07:04;;;;;;;2.95;2.2;;;;;;;13.5;96.62891;95371.97;;;;
2022/09/11 05:08:05;;;;;;;2.95;2.2;;;;;;;13.5;96.62891;95371.97;;;;
2022/09/11 05:09:05;;;;;;;2.95;2.2;;;;;;;13.5;96.62891;95371.97;;;;
2022/09/11 05:10:09;;;;;;;2.95;2.2;;;;;;;13.5;96.62891;95371.97;;;;
2022/09/11 05:11:10;;;;;;;2.95;2.2;;;;;;;13.5;96.62891;95371.97;;;;
2022/09/11 05:12:12;;;;;;;2.95;2.2;;;;;;;13.5;96.62891;95371.97;;;;
2022/09/11 05:13:13;;;;;;;2.95;2.2;;;;;;;13.5;96.62891;95371.97;;;;
2022/09/11 05:14:14;;;;;;;2.95;2.2;;;;;;;13.5;96.62891;95371.97;;;;
2022/09/11 05:15:14;;;;;;;2.95;2.2;;;;;;;13.5;96.62891;95371.97;;;;
2022/09/11 05:16:15;;;;;;;2.95;2.2;;;;;;;13.5;96.62891;95371.97;;;;
2022/09/11 05:17:16;;;;;;;2.95;2.2;;;;;;;13.5;96.62891;95371.97;;;;
2022/09/11 05:18:17;;;;;;;2.95;2.2;;;;;;;13.5;96.62891;95371.97;;;;
2022/09/11 05:19:17;;;;;;;2.95;2.2;;;;;;;13.5;96.62891;95371.97;;;;
2022/09/11 05:20:18;;;;;;;2.95;2.2;;;;;;;13.5;96.62891;95371.97;;;;
2022/09/11 05:21:18;;;;;;;2.95;2.2;;;;;;;13.5;96.62891;95371.97;;;;
2022/09/11 05:22:22;;;;;;;2.75;2.45;;;;;;;13.43;96.47461;95374.31;;;;
2022/09/11 05:23:22;;;;;;;2.75;2.45;;;;;;;13.43;96.47461;95374.31;;;;
2022/09/11 05:24:23;;;;;;;2.75;2.45;;;;;;;13.43;96.47461;95374.31;;;;
2022/09/11 05:25:24;;;;;;;2.75;2.45;;;;;;;13.43;96.47461;95374.31;;;;
2022/09/11 05:26:24;;;;;;;2.75;2.45;;;;;;;13.43;96.47461;95374.31;;;;
2022/09/11 05:27:27;;;;;;;2.75;2.45;;;;;;;13.43;96.47461;95374.31;;;;
2022/09/11 05:28:28;;;;;;;2.75;2.45;;;;;;;13.43;96.47461;95374.31;;;;
2022/09/11 05:29:29;;;;;;;2.75;2.45;;;;;;;13.43;96.47461;95374.31;;;;
2022/09/11 05:30:30;;;;;;;2.75;2.45;;;;;;;13.43;96.47461;95374.31;;;;
2022/09/11 05:31:30;;;;;;;2.75;2.45;;;;;;;13.43;96.47461;95374.31;;;;
2022/09/11 05:32:31;;;;;;;2.75;2.45;;;;;;;13.43;96.47461;95374.31;;;;
2022/09/11 05:33:31;;;;;;;3;2.4;;;;;;;13.52;96.66504;95385.83;;;;
2022/09/11 05:34:32;;;;;;;3;2.4;;;;;;;13.52;96.66504;95385.83;;;;
2022/09/11 05:35:33;;;;;;;3;2.4;;;;;;;13.52;96.66504;95385.83;;;;
2022/09/11 05:36:34;;;;;;;3;2.4;;;;;;;13.52;96.66504;95385.83;;;;
2022/09/11 05:37:35;;;;;;;3;2.4;;;;;;;13.52;96.66504;95385.83;;;;
2022/09/11 05:38:35;;;;;;;3;2.4;;;;;;;13.52;96.66504;95385.83;;;;
2022/09/11 05:39:36;;;;;;;3;2.4;;;;;;;13.52;96.66504;95385.83;;;;
2022/09/11 05:40:37;;;;;;;3;2.4;;;;;;;13.52;96.66504;95385.83;;;;
2022/09/11 05:41:43;;;;;;;3;2.4;;;;;;;13.52;96.66504;95385.83;;;;
2022/09/11 05:42:43;;;;;;;3;2.4;;;;;;;13.52;96.66504;95385.83;;;;
2022/09/11 05:43:44;;;;;;;3.45;2.5;;;;;;;13.6;96.54297;95386.42;;;;
2022/09/11 05:44:46;;;;;;;3.45;2.5;;;;;;;13.6;96.54297;95386.42;;;;
2022/09/11 05:45:46;;;;;;;3.45;2.5;;;;;;;13.6;96.54297;95386.42;;;;
2022/09/11 05:46:54;;;;;;;3.45;2.5;;;;;;;13.6;96.54297;95386.42;;;;
2022/09/11 05:47:54;;;;;;;3.45;2.5;;;;;;;13.6;96.54297;95386.42;;;;
2022/09/11 05:48:55;;;;;;;3.45;2.5;;;;;;;13.6;96.54297;95386.42;;;;
2022/09/11 05:49:56;;;;;;;3.45;2.5;;;;;;;13.6;96.54297;95386.42;;;;
2022/09/11 05:50:58;;;;;;;3.45;2.5;;;;;;;13.6;96.54297;95386.42;;;;
2022/09/11 05:52:00;;;;;;;3.45;2.5;;;;;;;13.6;96.54297;95386.42;;;;
2022/09/11 05:53:01;;;;;;;3.45;2.5;;;;;;;13.6;96.54297;95386.42;;;;
2022/09/11 05:54:01;;;;;;;3.45;2.5;;;;;;;13.6;96.54297;95386.42;;;;
2022/09/11 05:55:02;;;;;;;3.2;2.6;;;;;;;13.72;96.63672;95399.1;;;;
2022/09/11 05:56:04;;;;;;;3.2;2.6;;;;;;;13.72;96.63672;95399.1;;;;
2022/09/11 05:57:06;;;;;;;3.2;2.6;;;;;;;13.72;96.63672;95399.1;;;;
2022/09/11 05:58:07;;;;;;;3.2;2.6;;;;;;;13.72;96.63672;95399.1;;;;
2022/09/11 05:59:07;;;;;;;3.2;2.6;;;;;;;13.72;96.63672;95399.1;;;;
2022/09/11 06:00:12;;;;;;;3.2;2.6;;;;;;;13.72;96.63672;95399.1;;;;
2022/09/11 06:01:14;;;;;;;3.2;2.6;;;;;;;13.72;96.63672;95399.1;;;;
2022/09/11 06:02:16;;;;;;;3.2;2.6;;;;;;;13.72;96.63672;95399.1;;;;
2022/09/11 06:03:17;;;;;;;3.2;2.6;;;;;;;13.72;96.63672;95399.1;;;;
2022/09/11 06:04:18;;;;;;;3.2;2.6;;;;;;;13.72;96.63672;95399.1;;;;
2022/09/11 06:05:18;;;;;;;4.849999;2.6;;;;;;;13.85;96.68457;95409.62;;;;
2022/09/11 06:06:20;;;;;;;4.849999;2.6;;;;;;;13.85;96.68457;95409.62;;;;